Time;durP1;ratioP1;P1;durP2;ratioP2;P2;SDS_P1;SDS_P2;PMS_P1;PMS_P2;Temp;Humidity;BMP_temperature;BMP_pressure;BME280_temperature;BME280_humidity;BME280_pressure;Samples;Min_cycle;Max_cycle;Signal;HPM_P1;HPM_P2
2023/04/30 00:00:38;;;;;;;;;;;11.00;52.90;;;;;;5029494;28;20272;-62
2023/04/30 00:03:04;;;;;;;;;;;10.90;53.00;;;;;;5048896;28;19927;-62
2023/04/30 00:05:30;;;;;;;;;;;10.90;53.50;;;;;;5048947;28;19913;-63
2023/04/30 00:07:55;;;;;;;;;;;10.90;53.90;;;;;;5048770;28;20157;-62
2023/04/30 00:10:21;;;;;;;;;;;10.90;53.80;;;;;;5012233;28;19944;-63
2023/04/30 00:12:46;;;;;;;;;;;10.90;53.90;;;;;;5028739;28;19928;-63
2023/04/30 00:15:11;;;;;;;;;;;10.90;54.70;;;;;;5028636;28;20347;-62
2023/04/30 00:17:37;;;;;;;;;;;10.90;54.60;;;;;;5028969;28;20348;-64
2023/04/30 00:20:03;;;;;;;;;;;10.90;55.00;;;;;;5028284;28;19917;-62
2023/04/30 00:22:28;;;;;;;;;;;10.90;55.40;;;;;;5047999;28;19931;-62
2023/04/30 00:24:54;;;;;;;;;;;10.90;55.40;;;;;;5048325;28;19916;-62
2023/04/30 00:27:19;;;;;;;;;;;10.90;55.40;;;;;;5048401;28;19917;-62
2023/04/30 00:29:45;;;;;;;;;;;10.90;55.30;;;;;;5047950;28;20364;-63
2023/04/30 00:32:10;;;;;;;;;;;10.90;55.20;;;;;;5048573;28;19939;-63
2023/04/30 00:34:35;;;;;;;;;;;10.90;55.30;;;;;;5048847;28;19962;-63
2023/04/30 00:37:01;;;;;;;;;;;10.90;55.30;;;;;;5048157;28;20029;-62
2023/04/30 00:39:26;;;;;;;;;;;10.80;55.30;;;;;;5048233;28;19995;-63
2023/04/30 00:41:52;;;;;;;;;;;10.80;55.40;;;;;;5048607;28;19987;-64
2023/04/30 00:44:17;;;;;;;;;;;10.80;55.60;;;;;;5048051;28;19917;-63
2023/04/30 00:46:42;;;;;;;;;;;10.80;55.90;;;;;;5048990;28;19916;-63
2023/04/30 00:49:08;;;;;;;;;;;10.90;55.80;;;;;;5048264;28;20319;-64
2023/04/30 00:51:34;;;;;;;;;;;10.80;55.80;;;;;;5048337;28;19989;-64
2023/04/30 00:54:01;;;;;;;;;;;10.80;55.70;;;;;;5048055;28;19917;-62
2023/04/30 00:56:27;;;;;;;;;;;10.80;55.80;;;;;;5048156;28;19966;-62
2023/04/30 00:58:56;;;;;;;;;;;10.80;55.90;;;;;;5048507;28;19921;-62
2023/04/30 01:01:24;;;;;;;;;;;10.80;56.20;;;;;;5047987;28;20000;-63
2023/04/30 01:03:50;;;;;;;;;;;10.80;56.10;;;;;;5047702;28;20300;-63
2023/04/30 01:06:16;;;;;;;;;;;10.80;55.90;;;;;;5048354;28;19912;-62
2023/04/30 01:08:41;;;;;;;;;;;10.80;55.50;;;;;;5048263;28;19917;-63
2023/04/30 01:11:22;;;;;;;;;;;10.80;55.40;;;;;;5047706;28;20023;-62
2023/04/30 01:13:50;;;;;;;;;;;10.70;55.60;;;;;;5047901;28;19916;-63
2023/04/30 01:16:24;;;;;;;;;;;10.70;55.50;;;;;;5048008;28;19913;-62
2023/04/30 01:18:53;;;;;;;;;;;10.60;55.20;;;;;;5028071;28;19914;-63
2023/04/30 01:21:19;;;;;;;;;;;10.60;55.10;;;;;;5031205;28;19913;-63
2023/04/30 01:23:59;;;;;;;;;;;10.50;55.00;;;;;;5047636;28;19974;-65
2023/04/30 01:26:24;;;;;;;;;;;10.50;55.30;;;;;;5048917;28;20471;-65
2023/04/30 01:28:52;;;;;;;;;;;10.50;55.70;;;;;;5049144;28;19931;-66
2023/04/30 01:31:18;;;;;;;;;;;10.50;56.20;;;;;;5048129;28;20248;-66
2023/04/30 01:33:43;;;;;;;;;;;10.60;56.40;;;;;;5048449;28;19964;-66
2023/04/30 01:36:24;;;;;;;;;;;10.60;56.20;;;;;;5049031;28;20390;-66
2023/04/30 01:39:01;;;;;;;;;;;10.70;55.90;;;;;;5048860;28;19917;-66
2023/04/30 01:41:33;;;;;;;;;;;10.70;55.50;;;;;;5049210;28;19959;-66
2023/04/30 01:44:05;;;;;;;;;;;10.60;55.20;;;;;;5048830;28;19920;-66
2023/04/30 01:46:30;;;;;;;;;;;10.50;54.90;;;;;;5049196;28;19913;-65
2023/04/30 01:49:18;;;;;;;;;;;10.50;54.80;;;;;;5048959;28;19970;-65
2023/04/30 01:51:47;;;;;;;;;;;10.40;54.80;;;;;;5048673;28;20377;-66
2023/04/30 01:54:17;;;;;;;;;;;10.40;55.00;;;;;;5048461;28;19908;-66
2023/04/30 01:56:48;;;;;;;;;;;10.40;55.00;;;;;;5048463;28;19916;-66
2023/04/30 01:59:14;;;;;;;;;;;10.40;55.00;;;;;;5047645;28;19923;-65
2023/04/30 02:01:40;;;;;;;;;;;10.50;55.40;;;;;;5051073;28;20159;-66
2023/04/30 02:04:05;;;;;;;;;;;10.60;55.80;;;;;;5059538;28;19929;-66
2023/04/30 02:06:31;;;;;;;;;;;10.70;55.70;;;;;;5048192;28;19971;-65
2023/04/30 02:09:01;;;;;;;;;;;10.70;55.40;;;;;;5048887;28;19916;-66
2023/04/30 02:11:27;;;;;;;;;;;10.80;55.30;;;;;;5048663;28;19963;-66
2023/04/30 02:13:53;;;;;;;;;;;10.90;55.20;;;;;;5048123;28;19920;-66
2023/04/30 02:16:18;;;;;;;;;;;10.90;55.10;;;;;;5047974;28;20388;-66
2023/04/30 02:18:44;;;;;;;;;;;10.90;55.10;;;;;;5047932;28;20003;-66
2023/04/30 02:21:09;;;;;;;;;;;10.90;54.90;;;;;;5047686;28;20288;-66
2023/04/30 02:23:35;;;;;;;;;;;10.80;54.80;;;;;;5048039;28;20331;-66
2023/04/30 02:26:01;;;;;;;;;;;10.80;54.70;;;;;;5048437;28;20253;-66
2023/04/30 02:28:27;;;;;;;;;;;10.70;54.40;;;;;;5047485;28;20011;-67
2023/04/30 02:30:53;;;;;;;;;;;10.60;54.30;;;;;;5047938;28;20019;-66
2023/04/30 02:33:18;;;;;;;;;;;10.50;54.30;;;;;;5048196;28;19913;-66
2023/04/30 02:35:43;;;;;;;;;;;10.50;54.30;;;;;;5048152;28;19976;-66
2023/04/30 02:38:09;;;;;;;;;;;10.30;54.20;;;;;;5048078;28;20371;-66
2023/04/30 02:40:34;;;;;;;;;;;10.20;54.10;;;;;;5047985;28;19916;-66
2023/04/30 02:43:00;;;;;;;;;;;10.20;54.10;;;;;;5049531;28;19920;-65
2023/04/30 02:45:26;;;;;;;;;;;10.00;54.10;;;;;;5052098;28;20368;-66
2023/04/30 02:47:51;;;;;;;;;;;10.00;54.20;;;;;;5034469;28;20241;-66
2023/04/30 02:50:16;;;;;;;;;;;9.90;54.50;;;;;;5051945;28;20004;-66
2023/04/30 02:52:43;;;;;;;;;;;9.80;54.70;;;;;;5052139;28;19919;-66
2023/04/30 02:55:09;;;;;;;;;;;9.80;54.90;;;;;;5051469;28;19971;-66
2023/04/30 02:57:34;;;;;;;;;;;9.80;55.10;;;;;;5032001;28;19913;-66
2023/04/30 02:59:59;;;;;;;;;;;9.70;55.20;;;;;;5031831;28;20242;-66
2023/04/30 03:02:25;;;;;;;;;;;9.70;55.70;;;;;;5050302;28;19928;-66
2023/04/30 03:04:50;;;;;;;;;;;9.70;55.90;;;;;;5067130;28;19913;-66
2023/04/30 03:07:16;;;;;;;;;;;9.60;56.10;;;;;;5052148;28;19916;-66
2023/04/30 03:09:42;;;;;;;;;;;9.60;56.10;;;;;;5051502;28;20007;-66
2023/04/30 03:12:07;;;;;;;;;;;9.60;56.00;;;;;;5051693;28;19913;-66
2023/04/30 03:14:33;;;;;;;;;;;9.60;55.90;;;;;;5032845;28;19916;-66
2023/04/30 03:16:58;;;;;;;;;;;9.60;55.70;;;;;;5051187;28;19917;-65
2023/04/30 03:19:24;;;;;;;;;;;9.50;55.50;;;;;;5051541;28;19916;-66
2023/04/30 03:21:50;;;;;;;;;;;9.50;55.30;;;;;;5051460;28;19913;-66
2023/04/30 03:24:16;;;;;;;;;;;9.40;55.30;;;;;;5050455;28;19928;-66
2023/04/30 03:26:41;;;;;;;;;;;9.40;55.20;;;;;;5051145;28;19917;-66
2023/04/30 03:29:07;;;;;;;;;;;9.30;55.20;;;;;;5050230;28;19913;-66
2023/04/30 03:31:33;;;;;;;;;;;9.30;55.20;;;;;;5050645;28;20380;-66
2023/04/30 03:33:58;;;;;;;;;;;9.20;55.10;;;;;;5050823;28;19919;-65
2023/04/30 03:36:23;;;;;;;;;;;9.20;55.10;;;;;;5050812;28;19913;-66
2023/04/30 03:38:49;;;;;;;;;;;9.20;55.00;;;;;;5050198;28;20302;-65
2023/04/30 03:41:14;;;;;;;;;;;9.20;55.00;;;;;;5051106;28;20270;-65
2023/04/30 03:43:40;;;;;;;;;;;9.20;55.00;;;;;;5050109;28;19929;-65
2023/04/30 03:46:05;;;;;;;;;;;9.10;55.10;;;;;;5051015;28;19924;-65
2023/04/30 03:48:31;;;;;;;;;;;9.10;55.10;;;;;;5049513;28;19923;-63
2023/04/30 03:50:56;;;;;;;;;;;9.00;55.30;;;;;;5049260;28;19962;-62
2023/04/30 03:53:21;;;;;;;;;;;9.00;55.30;;;;;;5048810;28;19913;-62
2023/04/30 03:55:48;;;;;;;;;;;9.00;55.20;;;;;;5047441;28;20142;-63
2023/04/30 03:58:13;;;;;;;;;;;8.90;55.10;;;;;;5048989;28;20217;-62
2023/04/30 04:00:40;;;;;;;;;;;8.90;55.10;;;;;;5048664;28;20031;-61
2023/04/30 04:03:06;;;;;;;;;;;8.80;55.00;;;;;;5063299;28;19931;-62
2023/04/30 04:05:31;;;;;;;;;;;8.80;55.00;;;;;;5053788;28;20361;-62
2023/04/30 04:07:57;;;;;;;;;;;8.80;55.10;;;;;;5048699;28;19948;-63
2023/04/30 04:10:22;;;;;;;;;;;8.80;55.30;;;;;;5048560;28;19962;-64
2023/04/30 04:12:47;;;;;;;;;;;8.80;55.60;;;;;;5049105;28;20004;-63
2023/04/30 04:15:13;;;;;;;;;;;8.80;56.00;;;;;;5048554;28;19952;-64
2023/04/30 04:17:38;;;;;;;;;;;8.90;56.30;;;;;;5048578;28;19960;-63
2023/04/30 04:20:05;;;;;;;;;;;9.00;56.80;;;;;;5048673;28;19951;-63
2023/04/30 04:22:31;;;;;;;;;;;9.20;57.20;;;;;;5048349;28;20379;-63
2023/04/30 04:24:56;;;;;;;;;;;9.40;57.60;;;;;;5048399;28;19999;-62
2023/04/30 04:27:22;;;;;;;;;;;9.60;58.00;;;;;;5048958;28;20015;-62
2023/04/30 04:29:47;;;;;;;;;;;9.80;58.30;;;;;;5048496;28;19924;-63
2023/04/30 04:32:13;;;;;;;;;;;10.10;58.60;;;;;;5048743;28;19917;-62
2023/04/30 04:34:38;;;;;;;;;;;10.40;58.80;;;;;;5048472;28;20000;-62
2023/04/30 04:37:04;;;;;;;;;;;10.70;59.00;;;;;;5048677;28;19962;-62
2023/04/30 04:39:30;;;;;;;;;;;11.00;59.20;;;;;;5048247;28;20058;-62
2023/04/30 04:41:55;;;;;;;;;;;11.40;59.30;;;;;;5048903;28;20403;-62
2023/04/30 04:44:21;;;;;;;;;;;11.70;59.30;;;;;;5048056;28;19960;-61
2023/04/30 04:46:47;;;;;;;;;;;12.10;59.40;;;;;;5047735;28;19925;-63
2023/04/30 04:49:13;;;;;;;;;;;12.50;59.30;;;;;;5047935;28;19915;-62
2023/04/30 04:51:38;;;;;;;;;;;12.90;59.30;;;;;;5048229;28;20012;-62
2023/04/30 04:54:04;;;;;;;;;;;13.30;59.20;;;;;;5048033;28;20011;-63
2023/04/30 04:56:29;;;;;;;;;;;13.70;58.90;;;;;;5048230;28;20003;-62
2023/04/30 04:58:55;;;;;;;;;;;14.10;58.50;;;;;;5047442;28;19924;-63
2023/04/30 05:01:21;;;;;;;;;;;14.40;58.30;;;;;;5048267;28;19920;-64
2023/04/30 05:03:47;;;;;;;;;;;14.80;58.20;;;;;;5067572;28;20003;-62
2023/04/30 05:06:12;;;;;;;;;;;15.20;58.10;;;;;;5067195;28;19928;-64
2023/04/30 05:08:38;;;;;;;;;;;15.60;57.90;;;;;;5047454;28;20109;-63
2023/04/30 05:11:03;;;;;;;;;;;16.00;57.60;;;;;;5047494;28;19967;-65
2023/04/30 05:13:29;;;;;;;;;;;16.30;57.10;;;;;;5046691;28;20355;-63
2023/04/30 05:15:54;;;;;;;;;;;16.70;56.80;;;;;;5047606;28;20228;-63
2023/04/30 05:18:20;;;;;;;;;;;17.00;56.10;;;;;;5048043;28;19963;-67
2023/04/30 05:20:45;;;;;;;;;;;17.30;55.40;;;;;;5049035;28;19924;-66
2023/04/30 05:23:11;;;;;;;;;;;17.70;54.90;;;;;;5049856;28;19923;-66
2023/04/30 05:25:36;;;;;;;;;;;18.00;54.40;;;;;;5049828;28;20031;-66
2023/04/30 05:28:02;;;;;;;;;;;18.30;53.40;;;;;;5050775;28;19939;-67
2023/04/30 05:30:28;;;;;;;;;;;18.50;51.90;;;;;;5050136;28;19912;-66
2023/04/30 05:32:54;;;;;;;;;;;18.80;50.90;;;;;;5049615;28;19916;-67
2023/04/30 05:35:19;;;;;;;;;;;19.00;50.20;;;;;;5049918;28;20311;-67
2023/04/30 05:37:45;;;;;;;;;;;19.30;49.60;;;;;;5048486;28;20414;-63
2023/04/30 05:40:11;;;;;;;;;;;19.60;49.60;;;;;;5046971;28;19924;-64
2023/04/30 05:42:37;;;;;;;;;;;20.00;48.70;;;;;;5047330;28;19987;-63
2023/04/30 05:45:04;;;;;;;;;;;20.30;47.50;;;;;;5029844;28;21373;-63
2023/04/30 05:47:30;;;;;;;;;;;20.70;46.40;;;;;;5027424;28;19920;-65
2023/04/30 05:49:56;;;;;;;;;;;20.90;45.70;;;;;;5027384;28;19925;-62
2023/04/30 05:52:22;;;;;;;;;;;21.30;45.30;;;;;;5027663;28;19956;-64
2023/04/30 05:54:47;;;;;;;;;;;21.60;44.10;;;;;;5027183;28;20011;-63
2023/04/30 05:57:13;;;;;;;;;;;21.90;43.40;;;;;;5027346;28;20466;-63
2023/04/30 05:59:38;;;;;;;;;;;22.30;42.80;;;;;;5009640;28;19921;-63
2023/04/30 06:02:04;;;;;;;;;;;22.50;40.60;;;;;;5040158;28;19908;-63
2023/04/30 06:04:29;;;;;;;;;;;22.80;40.50;;;;;;5048741;28;19943;-64
2023/04/30 06:06:55;;;;;;;;;;;23.00;39.70;;;;;;5067191;28;19991;-63
2023/04/30 06:09:21;;;;;;;;;;;23.30;39.10;;;;;;5066888;28;19915;-63
2023/04/30 06:11:49;;;;;;;;;;;23.70;38.40;;;;;;5049009;28;19908;-64
2023/04/30 06:14:18;;;;;;;;;;;23.90;37.60;;;;;;5067039;28;20430;-63
2023/04/30 06:16:44;;;;;;;;;;;24.20;36.10;;;;;;5066637;28;19917;-64
2023/04/30 06:19:10;;;;;;;;;;;24.40;36.10;;;;;;5066471;28;19908;-63
2023/04/30 06:21:36;;;;;;;;;;;24.70;36.10;;;;;;5049844;28;19921;-64
2023/04/30 06:24:02;;;;;;;;;;;24.80;34.10;;;;;;5046349;28;19924;-64
2023/04/30 06:26:27;;;;;;;;;;;24.80;32.80;;;;;;5046345;28;19917;-63
2023/04/30 06:28:52;;;;;;;;;;;24.90;32.80;;;;;;5046051;28;19920;-64
2023/04/30 06:31:18;;;;;;;;;;;24.90;31.90;;;;;;5046390;28;19916;-64
2023/04/30 06:33:43;;;;;;;;;;;24.90;31.20;;;;;;5046409;28;20336;-64
2023/04/30 06:36:09;;;;;;;;;;;25.10;31.70;;;;;;5041152;28;20375;-64
2023/04/30 06:38:34;;;;;;;;;;;25.10;30.10;;;;;;5041149;28;19920;-64
2023/04/30 06:41:00;;;;;;;;;;;25.00;30.40;;;;;;5045267;28;19920;-64
2023/04/30 06:43:25;;;;;;;;;;;25.20;31.20;;;;;;5045951;28;20358;-64
2023/04/30 06:45:50;;;;;;;;;;;25.40;31.00;;;;;;5046315;28;19940;-64
2023/04/30 06:48:16;;;;;;;;;;;25.70;30.10;;;;;;5046271;28;20319;-63
2023/04/30 06:50:44;;;;;;;;;;;25.80;29.50;;;;;;5037944;28;20353;-63
2023/04/30 06:53:10;;;;;;;;;;;25.80;29.70;;;;;;5026773;28;19909;-65
2023/04/30 06:55:36;;;;;;;;;;;26.00;29.20;;;;;;5027635;28;19929;-65
2023/04/30 06:58:01;;;;;;;;;;;26.10;28.60;;;;;;5026310;28;20341;-64
2023/04/30 07:00:27;;;;;;;;;;;26.20;28.10;;;;;;5025991;28;20044;-63
2023/04/30 07:02:52;;;;;;;;;;;26.20;27.50;;;;;;5028996;28;20326;-64
2023/04/30 07:05:18;;;;;;;;;;;26.30;27.80;;;;;;5025830;28;19960;-66
2023/04/30 07:07:43;;;;;;;;;;;26.40;28.00;;;;;;5031230;28;19908;-63
2023/04/30 07:10:09;;;;;;;;;;;26.50;27.40;;;;;;5044509;28;19923;-63
2023/04/30 07:12:34;;;;;;;;;;;26.60;27.20;;;;;;5039224;28;19923;-64
2023/04/30 07:15:00;;;;;;;;;;;26.80;27.60;;;;;;5025769;28;19921;-64
2023/04/30 07:17:25;;;;;;;;;;;27.10;26.90;;;;;;5025870;28;19913;-63
2023/04/30 07:19:51;;;;;;;;;;;27.30;26.70;;;;;;5025643;28;20400;-64
2023/04/30 07:22:16;;;;;;;;;;;27.40;26.30;;;;;;5025654;28;19913;-63
2023/04/30 07:24:42;;;;;;;;;;;27.60;26.30;;;;;;5025555;28;19917;-64
2023/04/30 07:27:07;;;;;;;;;;;27.60;25.60;;;;;;5025616;28;19909;-65
2023/04/30 07:29:33;;;;;;;;;;;27.50;26.00;;;;;;5027446;28;19917;-64
2023/04/30 07:31:59;;;;;;;;;;;27.50;26.00;;;;;;5041935;28;19909;-64
2023/04/30 07:34:25;;;;;;;;;;;27.30;25.50;;;;;;5047621;28;19978;-64
2023/04/30 07:36:50;;;;;;;;;;;27.00;25.20;;;;;;5047394;28;20014;-64
2023/04/30 07:39:16;;;;;;;;;;;26.40;25.30;;;;;;5030062;28;19925;-64
2023/04/30 07:41:42;;;;;;;;;;;25.80;25.80;;;;;;5037461;28;19940;-64
2023/04/30 07:44:07;;;;;;;;;;;25.30;27.00;;;;;;5043951;28;20404;-64
2023/04/30 07:46:33;;;;;;;;;;;25.30;28.00;;;;;;5036652;28;19924;-64
2023/04/30 07:48:59;;;;;;;;;;;25.50;27.60;;;;;;5032022;28;19941;-64
2023/04/30 07:51:25;;;;;;;;;;;25.40;27.50;;;;;;5045349;28;20324;-64
2023/04/30 07:53:52;;;;;;;;;;;25.70;28.00;;;;;;5045904;28;19921;-64
2023/04/30 07:56:17;;;;;;;;;;;25.90;27.40;;;;;;5039766;28;20007;-65
2023/04/30 07:58:43;;;;;;;;;;;26.30;27.50;;;;;;5046497;28;20451;-63
2023/04/30 08:01:08;;;;;;;;;;;26.40;26.80;;;;;;5048886;28;19921;-65
2023/04/30 08:03:34;;;;;;;;;;;26.60;26.50;;;;;;5067516;28;19916;-64
2023/04/30 08:05:59;;;;;;;;;;;26.70;26.10;;;;;;5064093;28;19920;-66
2023/04/30 08:08:25;;;;;;;;;;;26.90;26.40;;;;;;5047709;28;19913;-67
2023/04/30 08:10:50;;;;;;;;;;;27.20;26.60;;;;;;5050913;28;20365;-67
2023/04/30 08:13:16;;;;;;;;;;;27.70;26.30;;;;;;5049679;28;19998;-67
2023/04/30 08:15:41;;;;;;;;;;;28.00;25.60;;;;;;5046688;28;20066;-66
2023/04/30 08:18:06;;;;;;;;;;;28.30;24.90;;;;;;5061317;28;19909;-67
2023/04/30 08:20:32;;;;;;;;;;;28.50;24.80;;;;;;5068414;28;19927;-67
2023/04/30 08:22:58;;;;;;;;;;;28.70;25.00;;;;;;5050842;28;19913;-67
2023/04/30 08:25:23;;;;;;;;;;;29.10;25.20;;;;;;5051119;28;20008;-67
2023/04/30 08:27:49;;;;;;;;;;;29.40;24.50;;;;;;5040113;28;19995;-67
2023/04/30 08:30:14;;;;;;;;;;;29.40;23.60;;;;;;5050105;28;19928;-67
2023/04/30 08:32:40;;;;;;;;;;;29.30;23.30;;;;;;5050372;28;19920;-67
2023/04/30 08:35:06;;;;;;;;;;;29.40;23.50;;;;;;5042348;28;19964;-67
2023/04/30 08:37:31;;;;;;;;;;;29.50;22.80;;;;;;5036550;28;19967;-67
2023/04/30 08:39:57;;;;;;;;;;;29.40;22.40;;;;;;5040808;28;19925;-67
2023/04/30 08:42:30;;;;;;;;;;;29.40;22.40;;;;;;5040944;28;19914;-67
2023/04/30 08:44:55;;;;;;;;;;;29.30;22.10;;;;;;5033766;28;19917;-66
2023/04/30 08:47:21;;;;;;;;;;;29.30;22.40;;;;;;5049149;28;19913;-67
2023/04/30 08:49:47;;;;;;;;;;;29.30;22.20;;;;;;5051370;28;19939;-67
2023/04/30 08:52:12;;;;;;;;;;;29.30;22.10;;;;;;5045027;28;19913;-67
2023/04/30 08:54:38;;;;;;;;;;;29.30;22.70;;;;;;5048819;28;19952;-67
2023/04/30 08:57:04;;;;;;;;;;;29.70;22.70;;;;;;5047019;28;19917;-67
2023/04/30 08:59:29;;;;;;;;;;;29.90;22.30;;;;;;5049778;28;19913;-67
2023/04/30 09:01:55;;;;;;;;;;;30.10;21.80;;;;;;5049011;28;20039;-67
2023/04/30 09:04:20;;;;;;;;;;;30.00;21.00;;;;;;5049083;28;19917;-67
2023/04/30 09:06:46;;;;;;;;;;;29.90;20.90;;;;;;5044012;28;20733;-67
2023/04/30 09:09:12;;;;;;;;;;;29.80;21.30;;;;;;5049393;28;20391;-67
2023/04/30 09:11:38;;;;;;;;;;;29.90;21.20;;;;;;5047609;28;19917;-67
2023/04/30 09:14:04;;;;;;;;;;;30.00;21.00;;;;;;5049452;28;20015;-67
2023/04/30 09:16:43;;;;;;;;;;;30.20;21.20;;;;;;5046284;28;20015;-67
2023/04/30 09:19:09;;;;;;;;;;;30.50;20.40;;;;;;5049539;28;19908;-67
2023/04/30 09:21:35;;;;;;;;;;;30.60;20.70;;;;;;5030809;28;19928;-67
2023/04/30 09:24:01;;;;;;;;;;;30.80;20.70;;;;;;5039972;28;19944;-64
2023/04/30 09:26:30;;;;;;;;;;;31.00;20.50;;;;;;5042132;28;19921;-67
2023/04/30 09:28:57;;;;;;;;;;;31.10;20.40;;;;;;5031545;28;19935;-67
2023/04/30 09:31:23;;;;;;;;;;;31.30;20.10;;;;;;5048094;28;19920;-67
2023/04/30 09:33:49;;;;;;;;;;;31.30;19.70;;;;;;5046964;28;19939;-67
2023/04/30 09:36:15;;;;;;;;;;;31.40;19.80;;;;;;5048192;28;20364;-67
2023/04/30 09:38:40;;;;;;;;;;;31.50;20.00;;;;;;5036152;28;19917;-67
2023/04/30 09:41:19;;;;;;;;;;;31.70;20.00;;;;;;5034150;28;19925;-67
2023/04/30 09:43:45;;;;;;;;;;;32.10;20.10;;;;;;5022717;28;19917;-64
2023/04/30 09:46:10;;;;;;;;;;;32.40;20.10;;;;;;5036104;28;20214;-64
2023/04/30 09:48:39;;;;;;;;;;;32.60;19.20;;;;;;5032506;28;20115;-68
2023/04/30 09:51:05;;;;;;;;;;;32.70;19.40;;;;;;5033790;28;19925;-67
2023/04/30 09:53:32;;;;;;;;;;;32.90;19.70;;;;;;5045832;28;20326;-65
2023/04/30 09:56:01;;;;;;;;;;;33.30;19.40;;;;;;5044910;28;19966;-65
2023/04/30 09:58:27;;;;;;;;;;;33.40;18.80;;;;;;5032284;28;20308;-65
2023/04/30 10:00:53;;;;;;;;;;;33.40;18.90;;;;;;5031779;28;19920;-65
2023/04/30 10:03:21;;;;;;;;;;;33.60;19.10;;;;;;5045879;28;20367;-68
2023/04/30 10:05:47;;;;;;;;;;;33.70;18.60;;;;;;5045880;28;20288;-65
2023/04/30 10:08:27;;;;;;;;;;;33.70;18.50;;;;;;5032601;28;19913;-67
2023/04/30 10:10:57;;;;;;;;;;;33.80;18.50;;;;;;5039575;28;19917;-65
2023/04/30 10:13:24;;;;;;;;;;;33.70;18.20;;;;;;5048297;28;20367;-65
2023/04/30 10:15:53;;;;;;;;;;;33.70;18.60;;;;;;5034805;28;20393;-65
2023/04/30 10:18:21;;;;;;;;;;;33.80;18.10;;;;;;5037930;28;19917;-67
2023/04/30 10:20:47;;;;;;;;;;;33.80;17.90;;;;;;5027509;28;19964;-67
2023/04/30 10:23:13;;;;;;;;;;;33.90;18.50;;;;;;5044774;28;19977;-66
2023/04/30 10:25:39;;;;;;;;;;;34.30;18.60;;;;;;5046670;28;19925;-66
2023/04/30 10:28:06;;;;;;;;;;;34.60;18.50;;;;;;5044340;28;19913;-66
2023/04/30 10:30:33;;;;;;;;;;;34.90;17.90;;;;;;5046714;28;20476;-66
2023/04/30 10:33:08;;;;;;;;;;;35.20;17.80;;;;;;5046342;28;19986;-66
2023/04/30 10:35:37;;;;;;;;;;;35.40;17.30;;;;;;5044956;28;19920;-66
2023/04/30 10:38:16;;;;;;;;;;;35.40;17.10;;;;;;5052811;28;19913;-66
2023/04/30 10:40:44;;;;;;;;;;;35.40;17.10;;;;;;5027662;28;19921;-66
2023/04/30 10:43:10;;;;;;;;;;;35.60;17.10;;;;;;5030474;28;19920;-66
2023/04/30 10:45:39;;;;;;;;;;;35.60;17.20;;;;;;5047495;28;19932;-66
2023/04/30 10:48:05;;;;;;;;;;;35.50;16.70;;;;;;5046315;28;19944;-66
2023/04/30 10:50:30;;;;;;;;;;;35.30;16.60;;;;;;5045491;28;19948;-66
2023/04/30 10:53:02;;;;;;;;;;;35.20;16.80;;;;;;5046572;28;19921;-66
2023/04/30 10:55:28;;;;;;;;;;;35.40;17.00;;;;;;5046695;28;19925;-66
2023/04/30 10:57:54;;;;;;;;;;;35.60;16.90;;;;;;5047925;28;20419;-67
2023/04/30 11:00:23;;;;;;;;;;;35.80;16.70;;;;;;5047027;28;20301;-66
2023/04/30 11:02:54;;;;;;;;;;;35.90;16.30;;;;;;5046491;28;19917;-66
2023/04/30 11:05:21;;;;;;;;;;;35.80;15.90;;;;;;5050035;28;20289;-67
2023/04/30 11:07:50;;;;;;;;;;;35.80;16.10;;;;;;5051524;28;19916;-66
2023/04/30 11:10:19;;;;;;;;;;;35.60;16.10;;;;;;5050643;28;20517;-66
2023/04/30 11:12:49;;;;;;;;;;;35.50;15.70;;;;;;5051209;28;20352;-66
2023/04/30 11:15:16;;;;;;;;;;;35.50;16.10;;;;;;5048666;28;20384;-66
2023/04/30 11:17:43;;;;;;;;;;;35.40;16.00;;;;;;5051679;28;19908;-66
2023/04/30 11:20:11;;;;;;;;;;;35.50;15.80;;;;;;5049867;28;20706;-66
2023/04/30 11:22:37;;;;;;;;;;;35.30;15.60;;;;;;5048767;28;19952;-66
2023/04/30 11:25:04;;;;;;;;;;;35.10;15.40;;;;;;5049673;28;19960;-66
2023/04/30 11:27:31;;;;;;;;;;;34.70;15.60;;;;;;5047774;28;19916;-66
2023/04/30 11:29:57;;;;;;;;;;;34.30;15.60;;;;;;5051889;28;19924;-67
2023/04/30 11:32:23;;;;;;;;;;;34.10;15.90;;;;;;5046556;28;19921;-66
2023/04/30 11:34:49;;;;;;;;;;;33.80;15.90;;;;;;5032359;28;20368;-66
2023/04/30 11:37:18;;;;;;;;;;;33.60;16.20;;;;;;5032368;28;19959;-66
2023/04/30 11:39:44;;;;;;;;;;;33.60;16.50;;;;;;5046526;28;19921;-66
2023/04/30 11:42:14;;;;;;;;;;;33.70;16.60;;;;;;5042635;28;20047;-66
2023/04/30 11:44:40;;;;;;;;;;;33.60;16.90;;;;;;5046306;28;19920;-66
2023/04/30 11:47:05;;;;;;;;;;;33.50;16.80;;;;;;5045330;28;20035;-66
2023/04/30 11:49:31;;;;;;;;;;;33.40;16.80;;;;;;5050320;28;19978;-66
2023/04/30 11:51:56;;;;;;;;;;;33.30;17.10;;;;;;5049138;28;19921;-66
2023/04/30 11:54:22;;;;;;;;;;;33.20;16.70;;;;;;5049983;28;19955;-66
2023/04/30 11:56:47;;;;;;;;;;;32.90;16.90;;;;;;5045917;28;19961;-66
2023/04/30 11:59:13;;;;;;;;;;;32.70;17.20;;;;;;5069039;28;19999;-66
2023/04/30 12:01:39;;;;;;;;;;;32.60;17.30;;;;;;5052525;28;20371;-66
2023/04/30 12:04:05;;;;;;;;;;;32.50;17.20;;;;;;5049636;28;19913;-66
2023/04/30 12:06:30;;;;;;;;;;;32.30;17.50;;;;;;5046765;28;19913;-66
2023/04/30 12:08:57;;;;;;;;;;;32.20;17.50;;;;;;5047675;28;19928;-66
2023/04/30 12:11:24;;;;;;;;;;;32.40;17.50;;;;;;5049493;28;19923;-66
2023/04/30 12:14:10;;;;;;;;;;;32.40;17.20;;;;;;5049117;28;19962;-66
2023/04/30 12:16:42;;;;;;;;;;;32.20;17.00;;;;;;5044899;28;19913;-66
2023/04/30 12:19:08;;;;;;;;;;;32.00;17.10;;;;;;5047178;28;19917;-66
2023/04/30 12:21:34;;;;;;;;;;;32.00;17.50;;;;;;5049950;28;19924;-66
2023/04/30 12:24:00;;;;;;;;;;;32.20;17.80;;;;;;5048607;28;20011;-66
2023/04/30 12:26:34;;;;;;;;;;;32.20;17.40;;;;;;5049557;28;19916;-66
2023/04/30 12:29:01;;;;;;;;;;;32.10;17.20;;;;;;5047922;28;20426;-66
2023/04/30 12:31:30;;;;;;;;;;;31.90;17.20;;;;;;5050396;28;19932;-66
2023/04/30 12:33:56;;;;;;;;;;;31.80;17.30;;;;;;5048630;28;19916;-66
2023/04/30 12:36:21;;;;;;;;;;;31.70;17.60;;;;;;5047919;28;19909;-66
2023/04/30 12:38:47;;;;;;;;;;;31.60;17.40;;;;;;5052572;28;20292;-66
2023/04/30 12:41:14;;;;;;;;;;;31.30;17.50;;;;;;5040575;28;20011;-66
2023/04/30 12:43:39;;;;;;;;;;;31.10;17.60;;;;;;5049525;28;20467;-66
2023/04/30 12:46:05;;;;;;;;;;;31.30;17.90;;;;;;5049017;28;20012;-67
2023/04/30 12:48:41;;;;;;;;;;;31.20;17.70;;;;;;5047308;28;19964;-66
2023/04/30 12:51:08;;;;;;;;;;;31.10;18.10;;;;;;5048087;28;19912;-66
2023/04/30 12:53:43;;;;;;;;;;;31.00;18.10;;;;;;5042503;28;19940;-66
2023/04/30 12:56:18;;;;;;;;;;;31.10;18.40;;;;;;5049098;28;19913;-66
2023/04/30 12:58:46;;;;;;;;;;;31.30;18.40;;;;;;5047991;28;19916;-66
2023/04/30 13:01:12;;;;;;;;;;;31.50;18.00;;;;;;5035373;28;20011;-66
2023/04/30 13:03:38;;;;;;;;;;;31.40;17.70;;;;;;5041357;28;19936;-65
2023/04/30 13:06:05;;;;;;;;;;;31.20;17.70;;;;;;5032878;28;19913;-67
2023/04/30 13:08:31;;;;;;;;;;;31.00;18.00;;;;;;5029216;28;19921;-67
2023/04/30 13:10:57;;;;;;;;;;;31.10;18.10;;;;;;5050150;28;19930;-66
2023/04/30 13:13:22;;;;;;;;;;;31.00;17.90;;;;;;5037333;28;19917;-65
2023/04/30 13:15:47;;;;;;;;;;;30.80;17.90;;;;;;5030018;28;20280;-66
2023/04/30 13:18:15;;;;;;;;;;;30.40;18.20;;;;;;5048116;28;19960;-66
2023/04/30 13:20:40;;;;;;;;;;;30.20;18.50;;;;;;5046403;28;20453;-66
2023/04/30 13:23:06;;;;;;;;;;;30.30;18.60;;;;;;5034056;28;20016;-66
2023/04/30 13:25:32;;;;;;;;;;;30.30;18.70;;;;;;5031960;28;19991;-66
2023/04/30 13:27:58;;;;;;;;;;;30.10;18.60;;;;;;5019999;28;19955;-66
2023/04/30 13:30:24;;;;;;;;;;;29.80;18.80;;;;;;5033331;28;20379;-66
2023/04/30 13:32:50;;;;;;;;;;;29.70;18.90;;;;;;5030962;28;19971;-65
2023/04/30 13:35:16;;;;;;;;;;;29.60;19.10;;;;;;5031128;28;19970;-66
2023/04/30 13:37:42;;;;;;;;;;;29.30;19.50;;;;;;5039541;28;20282;-67
2023/04/30 13:40:07;;;;;;;;;;;29.20;19.80;;;;;;5029552;28;19917;-67
2023/04/30 13:42:33;;;;;;;;;;;29.10;20.10;;;;;;5045058;28;19924;-67
2023/04/30 13:44:58;;;;;;;;;;;29.30;20.10;;;;;;5046846;28;20050;-67
2023/04/30 13:47:24;;;;;;;;;;;29.20;19.90;;;;;;5032549;28;19995;-67
2023/04/30 13:49:49;;;;;;;;;;;29.10;20.10;;;;;;5034481;28;19917;-66
2023/04/30 13:52:15;;;;;;;;;;;29.00;20.20;;;;;;5038254;28;20534;-66
2023/04/30 13:54:40;;;;;;;;;;;29.00;20.30;;;;;;5065894;28;19966;-66
2023/04/30 13:57:06;;;;;;;;;;;29.00;20.50;;;;;;5061594;28;19921;-66
2023/04/30 13:59:32;;;;;;;;;;;28.80;20.30;;;;;;5049338;28;19913;-66
2023/04/30 14:01:57;;;;;;;;;;;28.80;20.60;;;;;;5048525;28;19917;-66
2023/04/30 14:04:22;;;;;;;;;;;28.60;20.40;;;;;;5047928;28;19920;-66
2023/04/30 14:06:48;;;;;;;;;;;28.10;20.60;;;;;;5040066;28;19921;-65
2023/04/30 14:09:14;;;;;;;;;;;27.50;21.20;;;;;;5039750;28;19963;-66
2023/04/30 14:11:40;;;;;;;;;;;27.00;21.80;;;;;;5043924;28;20015;-66
2023/04/30 14:14:06;;;;;;;;;;;26.50;22.30;;;;;;5044256;28;20348;-62